sensor_id;sensor_type;location;lat;lon;timestamp;pressure;altitude;pressure_sealevel;temperature;humidity
17593;BME280;8915;51.760;14.300;2023-05-08T00:02:09;102054.00;;;5.34;78.39
17593;BME280;8915;51.760;14.300;2023-05-08T00:04:36;102055.53;;;5.30;78.41
17593;BME280;8915;51.760;14.300;2023-05-08T00:07:03;102056.03;;;5.27;78.37
17593;BME280;8915;51.760;14.300;2023-05-08T00:09:30;102049.47;;;5.24;78.52
17593;BME280;8915;51.760;14.300;2023-05-08T00:11:56;102052.63;;;5.21;78.23
17593;BME280;8915;51.760;14.300;2023-05-08T00:14:22;102054.94;;;5.18;78.35
17593;BME280;8915;51.760;14.300;2023-05-08T00:16:49;102050.47;;;5.13;78.64
17593;BME280;8915;51.760;14.300;2023-05-08T00:19:15;102059.59;;;5.11;78.71
17593;BME280;8915;51.760;14.300;2023-05-08T00:21:41;102049.66;;;5.08;78.65
17593;BME280;8915;51.760;14.300;2023-05-08T00:24:09;102053.56;;;5.05;78.68
17593;BME280;8915;51.760;14.300;2023-05-08T00:26:35;102050.66;;;5.02;79.07
17593;BME280;8915;51.760;14.300;2023-05-08T00:29:02;102055.34;;;5.00;79.05
17593;BME280;8915;51.760;14.300;2023-05-08T00:31:29;102059.25;;;4.97;79.00
17593;BME280;8915;51.760;14.300;2023-05-08T00:33:56;102056.38;;;4.94;79.12
17593;BME280;8915;51.760;14.300;2023-05-08T00:36:23;102058.47;;;4.92;79.33
17593;BME280;8915;51.760;14.300;2023-05-08T00:38:50;102054.50;;;4.89;79.27
17593;BME280;8915;51.760;14.300;2023-05-08T00:41:18;102051.59;;;4.86;79.12
17593;BME280;8915;51.760;14.300;2023-05-08T00:43:44;102049.72;;;4.81;79.41
17593;BME280;8915;51.760;14.300;2023-05-08T00:46:10;102059.91;;;4.78;79.38
17593;BME280;8915;51.760;14.300;2023-05-08T00:48:38;102062.25;;;4.74;79.05
17593;BME280;8915;51.760;14.300;2023-05-08T00:51:07;102056.19;;;4.69;79.34
17593;BME280;8915;51.760;14.300;2023-05-08T00:53:36;102064.53;;;4.66;79.65
17593;BME280;8915;51.760;14.300;2023-05-08T00:56:04;102053.00;;;4.62;79.57
17593;BME280;8915;51.760;14.300;2023-05-08T00:58:32;102059.75;;;4.58;79.50
17593;BME280;8915;51.760;14.300;2023-05-08T01:00:59;102060.00;;;4.56;79.53
17593;BME280;8915;51.760;14.300;2023-05-08T01:03:26;102063.38;;;4.52;79.79
17593;BME280;8915;51.760;14.300;2023-05-08T01:05:53;102063.84;;;4.49;79.61
17593;BME280;8915;51.760;14.300;2023-05-08T01:08:20;102072.47;;;4.44;79.80
17593;BME280;8915;51.760;14.300;2023-05-08T01:10:53;102072.94;;;4.41;79.75
17593;BME280;8915;51.760;14.300;2023-05-08T01:13:50;102063.25;;;4.37;79.99
17593;BME280;8915;51.760;14.300;2023-05-08T01:16:21;102068.19;;;4.33;79.95
17593;BME280;8915;51.760;14.300;2023-05-08T01:18:53;102066.28;;;4.29;79.81
17593;BME280;8915;51.760;14.300;2023-05-08T01:21:30;102066.81;;;4.26;80.09
17593;BME280;8915;51.760;14.300;2023-05-08T01:27:20;102060.72;;;4.20;80.32
17593;BME280;8915;51.760;14.300;2023-05-08T01:30:11;102071.97;;;4.21;80.83
17593;BME280;8915;51.760;14.300;2023-05-08T01:32:45;102077.44;;;4.19;80.92
17593;BME280;8915;51.760;14.300;2023-05-08T01:35:20;102077.69;;;4.18;80.79
17593;BME280;8915;51.760;14.300;2023-05-08T01:37:53;102077.16;;;4.16;80.85
17593;BME280;8915;51.760;14.300;2023-05-08T01:40:31;102078.19;;;4.15;80.93
17593;BME280;8915;51.760;14.300;2023-05-08T01:43:06;102074.78;;;4.14;80.42
17593;BME280;8915;51.760;14.300;2023-05-08T01:45:38;102077.63;;;4.13;80.61
17593;BME280;8915;51.760;14.300;2023-05-08T01:48:09;102065.84;;;4.10;80.43
17593;BME280;8915;51.760;14.300;2023-05-08T01:50:41;102066.88;;;4.09;80.55
17593;BME280;8915;51.760;14.300;2023-05-08T01:53:15;102070.78;;;4.07;80.97
17593;BME280;8915;51.760;14.300;2023-05-08T01:55:43;102064.22;;;4.04;80.59
17593;BME280;8915;51.760;14.300;2023-05-08T01:58:12;102068.91;;;4.02;80.71
17593;BME280;8915;51.760;14.300;2023-05-08T02:00:40;102063.13;;;4.00;80.75
17593;BME280;8915;51.760;14.300;2023-05-08T02:03:09;102060.78;;;3.99;81.19
17593;BME280;8915;51.760;14.300;2023-05-08T02:05:38;102062.84;;;3.97;81.25
17593;BME280;8915;51.760;14.300;2023-05-08T02:08:07;102059.19;;;3.98;81.65
17593;BME280;8915;51.760;14.300;2023-05-08T02:10:34;102060.47;;;3.95;81.24
17593;BME280;8915;51.760;14.300;2023-05-08T02:13:03;102065.69;;;3.95;81.36
17593;BME280;8915;51.760;14.300;2023-05-08T02:15:31;102068.56;;;3.94;81.31
17593;BME280;8915;51.760;14.300;2023-05-08T02:18:01;102068.00;;;3.92;81.38
17593;BME280;8915;51.760;14.300;2023-05-08T02:20:30;102065.66;;;3.90;81.11
17593;BME280;8915;51.760;14.300;2023-05-08T02:22:58;102061.72;;;3.88;81.14
17593;BME280;8915;51.760;14.300;2023-05-08T02:25:25;102061.94;;;3.86;81.30
17593;BME280;8915;51.760;14.300;2023-05-08T02:27:54;102062.19;;;3.85;81.20
17593;BME280;8915;51.760;14.300;2023-05-08T02:30:23;102066.88;;;3.83;81.45
17593;BME280;8915;51.760;14.300;2023-05-08T02:32:51;102060.84;;;3.82;80.97
17593;BME280;8915;51.760;14.300;2023-05-08T02:35:19;102067.34;;;3.80;81.41
17593;BME280;8915;51.760;14.300;2023-05-08T02:37:50;102066.03;;;3.77;81.21
17593;BME280;8915;51.760;14.300;2023-05-08T02:40:19;102063.66;;;3.76;81.58
17593;BME280;8915;51.760;14.300;2023-05-08T02:42:46;102064.16;;;3.73;81.22
17593;BME280;8915;51.760;14.300;2023-05-08T02:45:13;102072.22;;;3.71;81.30
17593;BME280;8915;51.760;14.300;2023-05-08T02:47:45;102064.88;;;3.68;81.62
17593;BME280;8915;51.760;14.300;2023-05-08T02:50:16;102063.53;;;3.66;81.28
17593;BME280;8915;51.760;14.300;2023-05-08T02:52:48;102062.19;;;3.63;81.48
17593;BME280;8915;51.760;14.300;2023-05-08T02:55:29;102061.66;;;3.61;81.69
17593;BME280;8915;51.760;14.300;2023-05-08T02:58:04;102061.88;;;3.60;81.84
17593;BME280;8915;51.760;14.300;2023-05-08T03:00:44;102068.16;;;3.59;81.90
17593;BME280;8915;51.760;14.300;2023-05-08T03:03:18;102070.22;;;3.57;81.79
17593;BME280;8915;51.760;14.300;2023-05-08T03:05:50;102065.25;;;3.55;81.42
17593;BME280;8915;51.760;14.300;2023-05-08T03:08:23;102076.72;;;3.54;82.04
17593;BME280;8915;51.760;14.300;2023-05-08T03:10:53;102084.78;;;3.53;82.11
17593;BME280;8915;51.760;14.300;2023-05-08T03:13:20;102080.59;;;3.52;82.22
17593;BME280;8915;51.760;14.300;2023-05-08T03:15:52;102078.22;;;3.50;81.88
17593;BME280;8915;51.760;14.300;2023-05-08T03:18:22;102082.88;;;3.48;81.44
17593;BME280;8915;51.760;14.300;2023-05-08T03:20:53;102086.31;;;3.49;82.11
17593;BME280;8915;51.760;14.300;2023-05-08T03:23:23;102088.69;;;3.50;82.39
17593;BME280;8915;51.760;14.300;2023-05-08T03:25:52;102091.28;;;3.50;82.25
17593;BME280;8915;51.760;14.300;2023-05-08T03:28:20;102096.50;;;3.50;82.60
17593;BME280;8915;51.760;14.300;2023-05-08T03:30:48;102089.22;;;3.52;82.64
17593;BME280;8915;51.760;14.300;2023-05-08T03:33:16;102095.47;;;3.51;82.21
17593;BME280;8915;51.760;14.300;2023-05-08T03:35:44;102096.28;;;3.52;82.58
17593;BME280;8915;51.760;14.300;2023-05-08T03:38:11;102099.66;;;3.52;81.75
17593;BME280;8915;51.760;14.300;2023-05-08T03:40:38;102100.69;;;3.51;81.77
17593;BME280;8915;51.760;14.300;2023-05-08T03:43:07;102101.22;;;3.53;82.21
17593;BME280;8915;51.760;14.300;2023-05-08T03:45:34;102094.19;;;3.54;82.04
17593;BME280;8915;51.760;14.300;2023-05-08T03:48:02;102108.06;;;3.54;82.04
17593;BME280;8915;51.760;14.300;2023-05-08T03:50:31;102098.16;;;3.56;82.36
17593;BME280;8915;51.760;14.300;2023-05-08T03:52:57;102110.16;;;3.57;82.21
17593;BME280;8915;51.760;14.300;2023-05-08T03:55:24;102107.31;;;3.59;82.49
17593;BME280;8915;51.760;14.300;2023-05-08T03:57:56;102108.13;;;3.59;82.22
17593;BME280;8915;51.760;14.300;2023-05-08T04:00:28;102111.03;;;3.63;82.26
17593;BME280;8915;51.760;14.300;2023-05-08T04:03:09;102104.78;;;3.64;82.29
17593;BME280;8915;51.760;14.300;2023-05-08T04:05:43;102107.94;;;3.66;82.51
17593;BME280;8915;51.760;14.300;2023-05-08T04:08:15;102115.06;;;3.70;82.41
17593;BME280;8915;51.760;14.300;2023-05-08T04:10:47;102111.94;;;3.73;82.56
17593;BME280;8915;51.760;14.300;2023-05-08T04:13:18;102118.28;;;3.77;82.64
17593;BME280;8915;51.760;14.300;2023-05-08T04:15:50;102124.09;;;3.84;82.62
17593;BME280;8915;51.760;14.300;2023-05-08T04:18:27;102115.53;;;3.89;81.88
17593;BME280;8915;51.760;14.300;2023-05-08T04:20:55;102122.41;;;3.95;82.37
17593;BME280;8915;51.760;14.300;2023-05-08T04:23:23;102121.66;;;3.99;82.20
17593;BME280;8915;51.760;14.300;2023-05-08T04:25:52;102121.25;;;4.07;82.08
17593;BME280;8915;51.760;14.300;2023-05-08T04:28:20;102121.84;;;4.14;82.27
17593;BME280;8915;51.760;14.300;2023-05-08T04:30:48;102118.22;;;4.20;82.29
17593;BME280;8915;51.760;14.300;2023-05-08T04:33:15;102124.84;;;4.28;82.48
17593;BME280;8915;51.760;14.300;2023-05-08T04:35:42;102125.19;;;4.36;82.53
17593;BME280;8915;51.760;14.300;2023-05-08T04:38:10;102132.63;;;4.44;82.26
17593;BME280;8915;51.760;14.300;2023-05-08T04:40:36;102134.25;;;4.50;82.04
17593;BME280;8915;51.760;14.300;2023-05-08T04:43:03;102139.56;;;4.60;81.80
17593;BME280;8915;51.760;14.300;2023-05-08T04:45:31;102142.53;;;4.69;81.49
17593;BME280;8915;51.760;14.300;2023-05-08T04:47:57;102144.69;;;4.77;81.53
17593;BME280;8915;51.760;14.300;2023-05-08T04:50:24;102143.19;;;4.86;81.21
17593;BME280;8915;51.760;14.300;2023-05-08T04:52:50;102147.97;;;4.94;80.59
17593;BME280;8915;51.760;14.300;2023-05-08T04:55:17;102151.16;;;5.01;80.32
17593;BME280;8915;51.760;14.300;2023-05-08T04:57:44;102157.00;;;5.08;80.21
17593;BME280;8915;51.760;14.300;2023-05-08T05:00:12;102151.28;;;5.16;79.62
17593;BME280;8915;51.760;14.300;2023-05-08T05:02:41;102156.06;;;5.24;80.33
17593;BME280;8915;51.760;14.300;2023-05-08T05:05:09;102156.88;;;5.29;79.04
17593;BME280;8915;51.760;14.300;2023-05-08T05:07:35;102151.41;;;5.36;80.71
17593;BME280;8915;51.760;14.300;2023-05-08T05:10:02;102152.25;;;5.41;80.83
17593;BME280;8915;51.760;14.300;2023-05-08T05:12:30;102159.63;;;5.49;79.42
17593;BME280;8915;51.760;14.300;2023-05-08T05:14:57;102161.22;;;5.55;80.56
17593;BME280;8915;51.760;14.300;2023-05-08T05:17:29;102162.06;;;5.61;79.18
17593;BME280;8915;51.760;14.300;2023-05-08T05:19:57;102169.44;;;5.69;79.33
17593;BME280;8915;51.760;14.300;2023-05-08T05:22:24;102172.06;;;5.74;79.03
17593;BME280;8915;51.760;14.300;2023-05-08T05:24:50;102168.50;;;5.80;79.18
17593;BME280;8915;51.760;14.300;2023-05-08T05:27:17;102183.19;;;5.86;79.15
17593;BME280;8915;51.760;14.300;2023-05-08T05:29:44;102166.19;;;5.93;78.06
17593;BME280;8915;51.760;14.300;2023-05-08T05:32:10;102176.44;;;6.00;78.43
17593;BME280;8915;51.760;14.300;2023-05-08T05:34:36;102164.94;;;6.06;78.06
17593;BME280;8915;51.760;14.300;2023-05-08T05:37:04;102165.22;;;6.14;76.11
17593;BME280;8915;51.760;14.300;2023-05-08T05:39:31;102160.50;;;6.21;77.57
17593;BME280;8915;51.760;14.300;2023-05-08T05:41:57;102164.72;;;6.27;78.55
17593;BME280;8915;51.760;14.300;2023-05-08T05:44:24;102177.34;;;6.35;76.63
17593;BME280;8915;51.760;14.300;2023-05-08T05:46:50;102170.00;;;6.42;77.68
17593;BME280;8915;51.760;14.300;2023-05-08T05:49:16;102181.06;;;6.49;76.95
17593;BME280;8915;51.760;14.300;2023-05-08T05:51:43;102171.63;;;6.58;77.71
17593;BME280;8915;51.760;14.300;2023-05-08T05:54:11;102177.44;;;6.65;77.10
17593;BME280;8915;51.760;14.300;2023-05-08T05:56:38;102177.69;;;6.74;76.44
17593;BME280;8915;51.760;14.300;2023-05-08T05:59:05;102180.59;;;6.82;76.47
17593;BME280;8915;51.760;14.300;2023-05-08T06:01:31;102177.72;;;6.89;76.54
17593;BME280;8915;51.760;14.300;2023-05-08T06:03:58;102186.09;;;6.96;77.27
17593;BME280;8915;51.760;14.300;2023-05-08T06:06:24;102181.91;;;7.05;75.84
17593;BME280;8915;51.760;14.300;2023-05-08T06:08:52;102185.31;;;7.10;77.04
17593;BME280;8915;51.760;14.300;2023-05-08T06:11:22;102180.34;;;7.19;76.38
17593;BME280;8915;51.760;14.300;2023-05-08T06:13:49;102184.00;;;7.28;78.27
17593;BME280;8915;51.760;14.300;2023-05-08T06:16:17;102184.53;;;7.35;76.63
17593;BME280;8915;51.760;14.300;2023-05-08T06:18:44;102183.97;;;7.43;74.93
17593;BME280;8915;51.760;14.300;2023-05-08T06:21:11;102187.66;;;7.52;75.29
17593;BME280;8915;51.760;14.300;2023-05-08T06:23:37;102190.00;;;7.58;74.84
17593;BME280;8915;51.760;14.300;2023-05-08T06:26:03;102195.25;;;7.68;74.06
17593;BME280;8915;51.760;14.300;2023-05-08T06:28:31;102188.09;;;7.79;73.94
17593;BME280;8915;51.760;14.300;2023-05-08T06:30:58;102197.28;;;7.86;74.17
17593;BME280;8915;51.760;14.300;2023-05-08T06:33:24;102189.63;;;7.95;71.83
17593;BME280;8915;51.760;14.300;2023-05-08T06:35:51;102191.72;;;8.03;72.60
17593;BME280;8915;51.760;14.300;2023-05-08T06:38:17;102184.56;;;8.13;73.92
17593;BME280;8915;51.760;14.300;2023-05-08T06:40:44;102189.03;;;8.23;71.54
17593;BME280;8915;51.760;14.300;2023-05-08T06:43:12;102189.75;;;8.33;72.65
17593;BME280;8915;51.760;14.300;2023-05-08T06:45:40;102185.78;;;8.41;71.47
17593;BME280;8915;51.760;14.300;2023-05-08T06:48:08;102191.00;;;8.51;73.12
17593;BME280;8915;51.760;14.300;2023-05-08T06:50:36;102192.72;;;8.65;70.57
17593;BME280;8915;51.760;14.300;2023-05-08T06:53:03;102190.56;;;8.77;68.23
17593;BME280;8915;51.760;14.300;2023-05-08T06:55:29;102190.75;;;8.86;69.17
17593;BME280;8915;51.760;14.300;2023-05-08T06:57:56;102179.34;;;8.95;72.07
17593;BME280;8915;51.760;14.300;2023-05-08T07:00:22;102187.19;;;9.05;67.64
17593;BME280;8915;51.760;14.300;2023-05-08T07:02:50;102189.97;;;9.19;68.81
17593;BME280;8915;51.760;14.300;2023-05-08T07:05:17;102189.88;;;9.29;69.13
17593;BME280;8915;51.760;14.300;2023-05-08T07:07:43;102183.16;;;9.41;66.45
17593;BME280;8915;51.760;14.300;2023-05-08T07:10:10;102188.31;;;9.56;67.96
17593;BME280;8915;51.760;14.300;2023-05-08T07:12:36;102182.69;;;9.63;65.43
17593;BME280;8915;51.760;14.300;2023-05-08T07:15:03;102191.84;;;9.70;63.36
17593;BME280;8915;51.760;14.300;2023-05-08T07:17:30;102187.81;;;9.78;67.03
17593;BME280;8915;51.760;14.300;2023-05-08T07:19:58;102194.81;;;9.87;62.29
17593;BME280;8915;51.760;14.300;2023-05-08T07:22:24;102190.19;;;9.98;65.93
17593;BME280;8915;51.760;14.300;2023-05-08T07:24:50;102198.34;;;10.06;66.76
17593;BME280;8915;51.760;14.300;2023-05-08T07:27:17;102201.91;;;10.15;63.76
17593;BME280;8915;51.760;14.300;2023-05-08T07:29:44;102191.53;;;10.24;65.75
17593;BME280;8915;51.760;14.300;2023-05-08T07:32:10;102192.72;;;10.31;64.39
17593;BME280;8915;51.760;14.300;2023-05-08T07:34:37;102193.94;;;10.39;65.17
17593;BME280;8915;51.760;14.300;2023-05-08T07:37:04;102188.22;;;10.50;64.21
17593;BME280;8915;51.760;14.300;2023-05-08T07:39:31;102178.59;;;10.59;63.70
17593;BME280;8915;51.760;14.300;2023-05-08T07:41:57;102192.50;;;10.65;59.57
17593;BME280;8915;51.760;14.300;2023-05-08T07:44:24;102191.88;;;10.73;63.00
17593;BME280;8915;51.760;14.300;2023-05-08T07:46:50;102199.16;;;10.81;58.15
17593;BME280;8915;51.760;14.300;2023-05-08T07:49:16;102208.28;;;10.88;58.14
17593;BME280;8915;51.760;14.300;2023-05-08T07:51:43;102196.34;;;10.91;64.98
17593;BME280;8915;51.760;14.300;2023-05-08T07:54:10;102207.84;;;11.00;58.05
17593;BME280;8915;51.760;14.300;2023-05-08T07:56:37;102194.53;;;11.05;56.56
17593;BME280;8915;51.760;14.300;2023-05-08T07:59:03;102193.09;;;11.12;58.58
17593;BME280;8915;51.760;14.300;2023-05-08T08:01:29;102207.22;;;11.21;60.69
17593;BME280;8915;51.760;14.300;2023-05-08T08:03:56;102197.56;;;11.30;57.53
17593;BME280;8915;51.760;14.300;2023-05-08T08:06:22;102206.09;;;11.41;56.05
17593;BME280;8915;51.760;14.300;2023-05-08T08:08:48;102201.19;;;11.48;63.30
17593;BME280;8915;51.760;14.300;2023-05-08T08:11:16;102205.34;;;11.54;59.03
17593;BME280;8915;51.760;14.300;2023-05-08T08:13:43;102189.59;;;11.62;62.34
17593;BME280;8915;51.760;14.300;2023-05-08T08:16:09;102201.66;;;11.68;57.24
17593;BME280;8915;51.760;14.300;2023-05-08T08:18:36;102196.75;;;11.75;58.19
17593;BME280;8915;51.760;14.300;2023-05-08T08:21:06;102197.16;;;11.82;60.19
17593;BME280;8915;51.760;14.300;2023-05-08T08:23:33;102187.84;;;11.85;57.53
17593;BME280;8915;51.760;14.300;2023-05-08T08:25:59;102186.38;;;11.92;59.22
17593;BME280;8915;51.760;14.300;2023-05-08T08:28:27;102197.06;;;12.01;55.74
17593;BME280;8915;51.760;14.300;2023-05-08T08:30:53;102190.28;;;12.08;60.34
17593;BME280;8915;51.760;14.300;2023-05-08T08:33:19;102191.75;;;12.14;57.77
17593;BME280;8915;51.760;14.300;2023-05-08T08:35:46;102192.31;;;12.25;56.44
17593;BME280;8915;51.760;14.300;2023-05-08T08:38:12;102190.06;;;12.32;58.07
17593;BME280;8915;51.760;14.300;2023-05-08T08:40:39;102190.13;;;12.40;54.56
17593;BME280;8915;51.760;14.300;2023-05-08T08:43:06;102182.25;;;12.49;58.17
17593;BME280;8915;51.760;14.300;2023-05-08T08:45:34;102185.25;;;12.56;52.60
17593;BME280;8915;51.760;14.300;2023-05-08T08:48:02;102188.31;;;12.63;55.66
17593;BME280;8915;51.760;14.300;2023-05-08T08:50:30;102184.63;;;12.72;57.99
17593;BME280;8915;51.760;14.300;2023-05-08T08:53:00;102194.53;;;12.80;52.01
17593;BME280;8915;51.760;14.300;2023-05-08T08:55:28;102181.44;;;12.84;55.55
17593;BME280;8915;51.760;14.300;2023-05-08T08:58:03;102187.59;;;12.93;54.21
17593;BME280;8915;51.760;14.300;2023-05-08T09:00:31;102185.63;;;12.98;53.27
17593;BME280;8915;51.760;14.300;2023-05-08T09:03:00;102179.59;;;13.06;49.54
17593;BME280;8915;51.760;14.300;2023-05-08T09:05:26;102171.19;;;13.13;52.51
17593;BME280;8915;51.760;14.300;2023-05-08T09:07:53;102171.28;;;13.21;52.68
17593;BME280;8915;51.760;14.300;2023-05-08T09:10:21;102167.06;;;13.29;56.19
17593;BME280;8915;51.760;14.300;2023-05-08T09:12:48;102174.28;;;13.37;51.64
17593;BME280;8915;51.760;14.300;2023-05-08T09:15:14;102165.59;;;13.45;56.09
17593;BME280;8915;51.760;14.300;2023-05-08T09:17:41;102181.06;;;13.51;52.79
17593;BME280;8915;51.760;14.300;2023-05-08T09:20:10;102173.47;;;13.58;50.28
17593;BME280;8915;51.760;14.300;2023-05-08T09:22:39;102173.00;;;13.65;51.42
17593;BME280;8915;51.760;14.300;2023-05-08T09:25:06;102167.56;;;13.70;51.76
17593;BME280;8915;51.760;14.300;2023-05-08T09:27:33;102179.94;;;13.74;44.64
17593;BME280;8915;51.760;14.300;2023-05-08T09:30:02;102167.59;;;13.78;49.98
17593;BME280;8915;51.760;14.300;2023-05-08T09:32:29;102164.03;;;13.83;44.59
17593;BME280;8915;51.760;14.300;2023-05-08T09:34:56;102170.75;;;13.89;46.34
17593;BME280;8915;51.760;14.300;2023-05-08T09:37:24;102167.66;;;13.95;50.69
17593;BME280;8915;51.760;14.300;2023-05-08T09:39:51;102169.66;;;13.98;48.75
17593;BME280;8915;51.760;14.300;2023-05-08T09:42:17;102167.06;;;14.07;45.83
17593;BME280;8915;51.760;14.300;2023-05-08T09:44:45;102168.59;;;14.08;45.17
17593;BME280;8915;51.760;14.300;2023-05-08T09:47:13;102159.25;;;14.10;43.20
17593;BME280;8915;51.760;14.300;2023-05-08T09:49:55;102163.00;;;14.18;45.92
17593;BME280;8915;51.760;14.300;2023-05-08T09:52:22;102172.09;;;14.25;44.45
17593;BME280;8915;51.760;14.300;2023-05-08T09:54:55;102160.22;;;14.31;43.48
17593;BME280;8915;51.760;14.300;2023-05-08T09:57:22;102147.88;;;14.35;47.74
17593;BME280;8915;51.760;14.300;2023-05-08T09:59:49;102160.69;;;14.42;50.30
17593;BME280;8915;51.760;14.300;2023-05-08T10:02:15;102155.69;;;14.49;43.89
17593;BME280;8915;51.760;14.300;2023-05-08T10:04:44;102145.81;;;14.58;45.31
17593;BME280;8915;51.760;14.300;2023-05-08T10:07:10;102146.16;;;14.65;43.97
17593;BME280;8915;51.760;14.300;2023-05-08T10:09:37;102143.03;;;14.71;48.78
17593;BME280;8915;51.760;14.300;2023-05-08T10:12:05;102149.88;;;14.81;44.93
17593;BME280;8915;51.760;14.300;2023-05-08T10:14:31;102137.19;;;14.86;42.59
17593;BME280;8915;51.760;14.300;2023-05-08T10:16:59;102146.91;;;14.91;42.01
17593;BME280;8915;51.760;14.300;2023-05-08T10:19:30;102145.63;;;14.97;44.72
17593;BME280;8915;51.760;14.300;2023-05-08T10:21:58;102148.44;;;15.00;42.48
17593;BME280;8915;51.760;14.300;2023-05-08T10:24:31;102141.84;;;15.06;48.47
17593;BME280;8915;51.760;14.300;2023-05-08T10:27:04;102138.69;;;15.13;47.39
17593;BME280;8915;51.760;14.300;2023-05-08T10:29:40;102137.13;;;15.20;43.18
17593;BME280;8915;51.760;14.300;2023-05-08T10:32:08;102130.19;;;15.28;42.05
17593;BME280;8915;51.760;14.300;2023-05-08T10:34:39;102126.28;;;15.34;46.88
17593;BME280;8915;51.760;14.300;2023-05-08T10:37:08;102131.44;;;15.39;44.20
17593;BME280;8915;51.760;14.300;2023-05-08T10:39:34;102123.72;;;15.46;45.54
17593;BME280;8915;51.760;14.300;2023-05-08T10:42:01;102113.25;;;15.49;42.71
17593;BME280;8915;51.760;14.300;2023-05-08T10:44:28;102118.81;;;15.56;45.30
17593;BME280;8915;51.760;14.300;2023-05-08T10:47:00;102119.56;;;15.65;52.10
17593;BME280;8915;51.760;14.300;2023-05-08T10:49:39;102121.38;;;15.73;49.80
17593;BME280;8915;51.760;14.300;2023-05-08T10:52:15;102118.09;;;15.76;42.09
17593;BME280;8915;51.760;14.300;2023-05-08T10:55:05;102111.03;;;15.80;45.50
17593;BME280;8915;51.760;14.300;2023-05-08T10:57:34;102115.69;;;15.83;43.03
17593;BME280;8915;51.760;14.300;2023-05-08T11:00:00;102112.25;;;15.83;38.99
17593;BME280;8915;51.760;14.300;2023-05-08T11:02:29;102116.94;;;15.86;47.21
17593;BME280;8915;51.760;14.300;2023-05-08T11:05:13;102112.19;;;15.91;45.73
17593;BME280;8915;51.760;14.300;2023-05-08T11:07:53;102107.44;;;15.97;47.92
17593;BME280;8915;51.760;14.300;2023-05-08T11:10:20;102101.94;;;16.02;41.62
17593;BME280;8915;51.760;14.300;2023-05-08T11:12:48;102100.97;;;16.06;48.93
17593;BME280;8915;51.760;14.300;2023-05-08T11:15:15;102103.56;;;16.15;41.15
17593;BME280;8915;51.760;14.300;2023-05-08T11:17:52;102097.38;;;16.23;44.25
17593;BME280;8915;51.760;14.300;2023-05-08T11:20:22;102104.41;;;16.27;45.35
17593;BME280;8915;51.760;14.300;2023-05-08T11:22:48;102091.31;;;16.34;42.75
17593;BME280;8915;51.760;14.300;2023-05-08T11:25:15;102092.06;;;16.43;41.81
17593;BME280;8915;51.760;14.300;2023-05-08T11:28:11;102094.06;;;16.46;39.37
17593;BME280;8915;51.760;14.300;2023-05-08T11:30:38;102090.22;;;16.56;49.02
17593;BME280;8915;51.760;14.300;2023-05-08T11:33:14;102084.22;;;16.59;49.36
17593;BME280;8915;51.760;14.300;2023-05-08T11:35:52;102080.22;;;16.65;42.56
17593;BME280;8915;51.760;14.300;2023-05-08T11:38:22;102081.44;;;16.67;43.47
17593;BME280;8915;51.760;14.300;2023-05-08T11:40:54;102079.25;;;16.69;46.55
17593;BME280;8915;51.760;14.300;2023-05-08T11:43:28;102079.16;;;16.78;38.92
17593;BME280;8915;51.760;14.300;2023-05-08T11:45:59;102079.59;;;16.80;44.65
17593;BME280;8915;51.760;14.300;2023-05-08T11:48:28;102072.97;;;16.86;40.28
17593;BME280;8915;51.760;14.300;2023-05-08T11:50:55;102072.41;;;16.92;42.86
17593;BME280;8915;51.760;14.300;2023-05-08T11:53:21;102075.19;;;16.96;40.73
17593;BME280;8915;51.760;14.300;2023-05-08T11:55:48;102069.97;;;16.99;41.88
17593;BME280;8915;51.760;14.300;2023-05-08T11:58:15;102064.84;;;17.06;44.89
17593;BME280;8915;51.760;14.300;2023-05-08T12:00:41;102060.84;;;17.12;42.98
17593;BME280;8915;51.760;14.300;2023-05-08T12:03:11;102069.06;;;17.19;43.46
17593;BME280;8915;51.760;14.300;2023-05-08T12:05:39;102078.78;;;17.24;42.29
17593;BME280;8915;51.760;14.300;2023-05-08T12:08:06;102075.41;;;17.27;38.15
17593;BME280;8915;51.760;14.300;2023-05-08T12:10:38;102065.31;;;17.32;42.16
17593;BME280;8915;51.760;14.300;2023-05-08T12:13:14;102075.34;;;17.35;45.04
17593;BME280;8915;51.760;14.300;2023-05-08T12:15:41;102070.13;;;17.39;47.68
17593;BME280;8915;51.760;14.300;2023-05-08T12:18:07;102072.56;;;17.44;48.76
17593;BME280;8915;51.760;14.300;2023-05-08T12:20:33;102064.22;;;17.45;47.70
17593;BME280;8915;51.760;14.300;2023-05-08T12:23:02;102064.22;;;17.45;40.27
17593;BME280;8915;51.760;14.300;2023-05-08T12:25:29;102069.56;;;17.45;40.94
17593;BME280;8915;51.760;14.300;2023-05-08T12:27:55;102060.53;;;17.50;42.39
17593;BME280;8915;51.760;14.300;2023-05-08T12:30:22;102057.19;;;17.53;44.92
17593;BME280;8915;51.760;14.300;2023-05-08T12:32:48;102065.34;;;17.56;37.59
17593;BME280;8915;51.760;14.300;2023-05-08T12:35:15;102056.63;;;17.59;36.31
17593;BME280;8915;51.760;14.300;2023-05-08T12:37:41;102054.06;;;17.63;38.11
17593;BME280;8915;51.760;14.300;2023-05-08T12:40:24;102067.88;;;17.65;43.29
17593;BME280;8915;51.760;14.300;2023-05-08T12:42:50;102054.94;;;17.67;37.96
17593;BME280;8915;51.760;14.300;2023-05-08T12:45:17;102061.97;;;17.71;46.23
17593;BME280;8915;51.760;14.300;2023-05-08T12:47:45;102048.16;;;17.69;38.82
17593;BME280;8915;51.760;14.300;2023-05-08T12:50:13;102045.38;;;17.66;38.20
17593;BME280;8915;51.760;14.300;2023-05-08T12:52:40;102034.78;;;17.69;37.54
17593;BME280;8915;51.760;14.300;2023-05-08T12:55:19;102038.59;;;17.68;41.02
17593;BME280;8915;51.760;14.300;2023-05-08T12:57:48;102043.69;;;17.73;43.84
17593;BME280;8915;51.760;14.300;2023-05-08T13:00:16;102045.72;;;17.76;41.95
17593;BME280;8915;51.760;14.300;2023-05-08T13:02:53;102045.16;;;17.71;45.55
17593;BME280;8915;51.760;14.300;2023-05-08T13:05:20;102031.38;;;17.69;35.76
17593;BME280;8915;51.760;14.300;2023-05-08T13:07:47;102031.38;;;17.69;38.17